sensor_id;sensor_type;location;lat;lon;timestamp;pressure;altitude;pressure_sealevel;temperature;humidity
12146;BME280;6136;47.032;15.398;2022-10-16T00:01:46;97850.34;;;10.46;nan
12146;BME280;6136;47.032;15.398;2022-10-16T00:04:14;97853.69;;;10.49;nan
12146;BME280;6136;47.032;15.398;2022-10-16T00:06:42;97852.06;;;10.47;nan
12146;BME280;6136;47.032;15.398;2022-10-16T00:09:11;97852.66;;;10.52;nan
12146;BME280;6136;47.032;15.398;2022-10-16T00:11:40;97843.25;;;10.46;nan
12146;BME280;6136;47.032;15.398;2022-10-16T00:14:12;97850.84;;;10.52;nan
12146;BME280;6136;47.032;15.398;2022-10-16T00:16:41;97843.66;;;10.55;nan
12146;BME280;6136;47.032;15.398;2022-10-16T00:19:11;97851.44;;;10.58;nan
12146;BME280;6136;47.032;15.398;2022-10-16T00:21:39;97860.91;;;10.62;nan
12146;BME280;6136;47.032;15.398;2022-10-16T00:24:09;97862.78;;;10.60;nan
12146;BME280;6136;47.032;15.398;2022-10-16T00:26:38;97858.47;;;10.59;nan
12146;BME280;6136;47.032;15.398;2022-10-16T00:29:07;97856.47;;;10.62;nan
12146;BME280;6136;47.032;15.398;2022-10-16T00:31:36;97868.41;;;10.69;nan
12146;BME280;6136;47.032;15.398;2022-10-16T00:34:04;97870.06;;;10.72;nan
12146;BME280;6136;47.032;15.398;2022-10-16T00:36:34;97857.75;;;10.71;nan
12146;BME280;6136;47.032;15.398;2022-10-16T00:39:03;97864.38;;;10.78;nan
12146;BME280;6136;47.032;15.398;2022-10-16T00:41:32;97855.59;;;10.77;nan
12146;BME280;6136;47.032;15.398;2022-10-16T00:44:02;97870.47;;;10.80;nan
12146;BME280;6136;47.032;15.398;2022-10-16T00:46:37;97865.91;;;10.82;nan
12146;BME280;6136;47.032;15.398;2022-10-16T00:49:09;97875.56;;;10.83;nan
12146;BME280;6136;47.032;15.398;2022-10-16T00:51:41;97871.81;;;10.87;nan
12146;BME280;6136;47.032;15.398;2022-10-16T00:54:12;97872.91;;;10.83;nan
12146;BME280;6136;47.032;15.398;2022-10-16T00:56:42;97871.31;;;10.80;nan
12146;BME280;6136;47.032;15.398;2022-10-16T00:59:15;97870.47;;;10.80;nan
12146;BME280;6136;47.032;15.398;2022-10-16T01:01:45;97868.06;;;10.75;nan
12146;BME280;6136;47.032;15.398;2022-10-16T01:04:13;97873.38;;;10.75;nan
12146;BME280;6136;47.032;15.398;2022-10-16T01:06:47;97882.63;;;10.68;nan
12146;BME280;6136;47.032;15.398;2022-10-16T01:09:22;97870.50;;;10.64;nan
12146;BME280;6136;47.032;15.398;2022-10-16T01:11:58;97879.66;;;10.59;nan
12146;BME280;6136;47.032;15.398;2022-10-16T01:14:39;97874.53;;;10.56;nan
12146;BME280;6136;47.032;15.398;2022-10-16T01:17:12;97882.63;;;10.52;nan
12146;BME280;6136;47.032;15.398;2022-10-16T01:20:15;97873.25;;;10.47;nan
12146;BME280;6136;47.032;15.398;2022-10-16T01:23:04;97873.44;;;10.44;nan
12146;BME280;6136;47.032;15.398;2022-10-16T01:28:34;97860.50;;;10.38;nan
12146;BME280;6136;47.032;15.398;2022-10-16T01:31:03;97870.16;;;10.39;nan
12146;BME280;6136;47.032;15.398;2022-10-16T01:33:35;97873.88;;;10.36;nan
12146;BME280;6136;47.032;15.398;2022-10-16T01:36:10;97873.00;;;10.36;nan
12146;BME280;6136;47.032;15.398;2022-10-16T01:38:40;97887.13;;;10.36;nan
12146;BME280;6136;47.032;15.398;2022-10-16T01:41:14;97885.41;;;10.35;nan
12146;BME280;6136;47.032;15.398;2022-10-16T01:43:46;97884.56;;;10.35;nan
12146;BME280;6136;47.032;15.398;2022-10-16T01:46:19;97877.38;;;10.37;nan
12146;BME280;6136;47.032;15.398;2022-10-16T01:48:49;97878.22;;;10.37;nan
12146;BME280;6136;47.032;15.398;2022-10-16T01:51:19;97871.53;;;10.46;nan
12146;BME280;6136;47.032;15.398;2022-10-16T01:53:51;97881.28;;;10.45;nan
12146;BME280;6136;47.032;15.398;2022-10-16T01:56:21;97871.81;;;10.41;nan
12146;BME280;6136;47.032;15.398;2022-10-16T01:58:55;97866.66;;;10.38;nan
12146;BME280;6136;47.032;15.398;2022-10-16T02:01:26;97874.28;;;10.44;nan
12146;BME280;6136;47.032;15.398;2022-10-16T02:03:57;97869.00;;;10.44;nan
12146;BME280;6136;47.032;15.398;2022-10-16T02:06:27;97859.41;;;10.42;nan
12146;BME280;6136;47.032;15.398;2022-10-16T02:08:56;97868.44;;;10.54;nan
12146;BME280;6136;47.032;15.398;2022-10-16T02:11:24;97870.34;;;10.52;nan
12146;BME280;6136;47.032;15.398;2022-10-16T02:13:58;97866.94;;;10.49;nan
12146;BME280;6136;47.032;15.398;2022-10-16T02:16:33;97874.28;;;10.44;nan
12146;BME280;6136;47.032;15.398;2022-10-16T02:19:02;97864.44;;;10.46;nan
12146;BME280;6136;47.032;15.398;2022-10-16T02:21:35;97871.53;;;10.46;nan
12146;BME280;6136;47.032;15.398;2022-10-16T02:24:11;97875.97;;;10.45;nan
12146;BME280;6136;47.032;15.398;2022-10-16T02:26:47;97872.66;;;10.42;nan
12146;BME280;6136;47.032;15.398;2022-10-16T02:29:21;97883.19;;;10.43;nan
12146;BME280;6136;47.032;15.398;2022-10-16T02:31:54;97888.63;;;10.40;nan
12146;BME280;6136;47.032;15.398;2022-10-16T02:34:25;97887.19;;;10.35;nan
12146;BME280;6136;47.032;15.398;2022-10-16T02:36:55;97883.69;;;10.34;nan
12146;BME280;6136;47.032;15.398;2022-10-16T02:39:26;97889.94;;;10.33;nan
12146;BME280;6136;47.032;15.398;2022-10-16T02:41:55;97889.94;;;10.33;nan
12146;BME280;6136;47.032;15.398;2022-10-16T02:44:25;97890.00;;;10.32;nan
12146;BME280;6136;47.032;15.398;2022-10-16T02:46:53;97888.22;;;10.32;nan
12146;BME280;6136;47.032;15.398;2022-10-16T02:49:21;97889.94;;;10.33;nan
12146;BME280;6136;47.032;15.398;2022-10-16T02:51:49;97881.56;;;10.25;nan
12146;BME280;6136;47.032;15.398;2022-10-16T02:54:18;97891.28;;;10.25;nan
12146;BME280;6136;47.032;15.398;2022-10-16T02:56:46;97892.50;;;10.19;nan
12146;BME280;6136;47.032;15.398;2022-10-16T02:59:14;97897.00;;;10.17;nan
12146;BME280;6136;47.032;15.398;2022-10-16T03:01:44;97902.22;;;10.19;nan
12146;BME280;6136;47.032;15.398;2022-10-16T03:04:12;97904.88;;;10.19;nan
12146;BME280;6136;47.032;15.398;2022-10-16T03:06:41;97909.31;;;10.18;nan
12146;BME280;6136;47.032;15.398;2022-10-16T03:09:10;97908.38;;;10.19;nan
12146;BME280;6136;47.032;15.398;2022-10-16T03:11:38;97911.81;;;10.21;nan
12146;BME280;6136;47.032;15.398;2022-10-16T03:14:06;97909.16;;;10.21;nan
12146;BME280;6136;47.032;15.398;2022-10-16T03:16:34;97901.53;;;10.15;nan
12146;BME280;6136;47.032;15.398;2022-10-16T03:19:04;97897.06;;;10.16;nan
12146;BME280;6136;47.032;15.398;2022-10-16T03:21:32;97894.50;;;10.14;nan
12146;BME280;6136;47.032;15.398;2022-10-16T03:24:01;97896.31;;;10.13;nan
12146;BME280;6136;47.032;15.398;2022-10-16T03:26:29;97895.22;;;10.18;nan
12146;BME280;6136;47.032;15.398;2022-10-16T03:28:57;97899.97;;;10.11;nan
12146;BME280;6136;47.032;15.398;2022-10-16T03:31:25;97894.66;;;10.11;nan
12146;BME280;6136;47.032;15.398;2022-10-16T03:33:54;97890.50;;;10.07;nan
12146;BME280;6136;47.032;15.398;2022-10-16T03:36:23;97886.88;;;10.08;nan
12146;BME280;6136;47.032;15.398;2022-10-16T03:38:51;97895.53;;;10.11;nan
12146;BME280;6136;47.032;15.398;2022-10-16T03:41:20;97890.31;;;10.10;nan
12146;BME280;6136;47.032;15.398;2022-10-16T03:43:49;97904.34;;;10.12;nan
12146;BME280;6136;47.032;15.398;2022-10-16T03:46:17;97898.34;;;10.08;nan
12146;BME280;6136;47.032;15.398;2022-10-16T03:48:45;97904.19;;;10.15;nan
12146;BME280;6136;47.032;15.398;2022-10-16T03:51:13;97912.91;;;10.17;nan
12146;BME280;6136;47.032;15.398;2022-10-16T03:53:43;97912.13;;;10.15;nan
12146;BME280;6136;47.032;15.398;2022-10-16T03:56:11;97915.53;;;10.17;nan
12146;BME280;6136;47.032;15.398;2022-10-16T03:58:40;97920.69;;;10.20;nan
12146;BME280;6136;47.032;15.398;2022-10-16T04:01:08;97916.31;;;10.19;nan
12146;BME280;6136;47.032;15.398;2022-10-16T04:03:36;97924.72;;;10.27;nan
12146;BME280;6136;47.032;15.398;2022-10-16T04:06:05;97919.91;;;10.18;nan
12146;BME280;6136;47.032;15.398;2022-10-16T04:08:33;97924.94;;;10.23;nan
12146;BME280;6136;47.032;15.398;2022-10-16T04:11:05;97925.22;;;10.18;nan
12146;BME280;6136;47.032;15.398;2022-10-16T04:13:33;97925.22;;;10.18;nan
12146;BME280;6136;47.032;15.398;2022-10-16T04:16:01;97927.78;;;10.20;nan
12146;BME280;6136;47.032;15.398;2022-10-16T04:18:29;97926.91;;;10.19;nan
12146;BME280;6136;47.032;15.398;2022-10-16T04:21:02;97921.63;;;10.19;nan
12146;BME280;6136;47.032;15.398;2022-10-16T04:23:31;97926.28;;;10.14;nan
12146;BME280;6136;47.032;15.398;2022-10-16T04:25:59;97923.81;;;10.11;nan
12146;BME280;6136;47.032;15.398;2022-10-16T04:28:29;97923.81;;;10.11;nan
12146;BME280;6136;47.032;15.398;2022-10-16T04:30:57;97916.78;;;10.10;nan
12146;BME280;6136;47.032;15.398;2022-10-16T04:33:26;97924.59;;;10.13;nan
12146;BME280;6136;47.032;15.398;2022-10-16T04:35:58;97928.16;;;10.12;nan
12146;BME280;6136;47.032;15.398;2022-10-16T04:38:26;97919.44;;;10.10;nan
12146;BME280;6136;47.032;15.398;2022-10-16T04:40:55;97927.03;;;10.16;nan
12146;BME280;6136;47.032;15.398;2022-10-16T04:43:23;97932.22;;;10.19;nan
12146;BME280;6136;47.032;15.398;2022-10-16T04:45:53;97931.28;;;10.20;nan
12146;BME280;6136;47.032;15.398;2022-10-16T04:48:21;97939.03;;;10.23;nan
12146;BME280;6136;47.032;15.398;2022-10-16T04:50:50;97939.91;;;10.24;nan
12146;BME280;6136;47.032;15.398;2022-10-16T04:53:20;97939.22;;;10.20;nan
12146;BME280;6136;47.032;15.398;2022-10-16T04:55:49;97943.47;;;10.23;nan
12146;BME280;6136;47.032;15.398;2022-10-16T04:58:17;97946.13;;;10.23;nan
12146;BME280;6136;47.032;15.398;2022-10-16T05:00:45;97938.88;;;10.26;nan
12146;BME280;6136;47.032;15.398;2022-10-16T05:03:15;97942.47;;;10.25;nan
12146;BME280;6136;47.032;15.398;2022-10-16T05:05:44;97954.78;;;10.26;nan
12146;BME280;6136;47.032;15.398;2022-10-16T05:08:13;97955.13;;;10.20;nan
12146;BME280;6136;47.032;15.398;2022-10-16T05:10:43;97952.00;;;10.12;nan
12146;BME280;6136;47.032;15.398;2022-10-16T05:13:12;97966.66;;;10.19;nan
12146;BME280;6136;47.032;15.398;2022-10-16T05:15:40;97962.13;;;10.21;nan
12146;BME280;6136;47.032;15.398;2022-10-16T05:18:09;97966.59;;;10.36;nan
12146;BME280;6136;47.032;15.398;2022-10-16T05:20:38;97963.31;;;10.31;nan
12146;BME280;6136;47.032;15.398;2022-10-16T05:23:07;97969.88;;;10.24;nan
12146;BME280;6136;47.032;15.398;2022-10-16T05:25:37;97975.38;;;10.21;nan
12146;BME280;6136;47.032;15.398;2022-10-16T05:28:05;97974.59;;;10.19;nan
12146;BME280;6136;47.032;15.398;2022-10-16T05:30:33;97983.41;;;10.20;nan
12146;BME280;6136;47.032;15.398;2022-10-16T05:33:01;97996.38;;;10.24;nan
12146;BME280;6136;47.032;15.398;2022-10-16T05:35:30;97991.34;;;10.20;nan
12146;BME280;6136;47.032;15.398;2022-10-16T05:37:59;97987.69;;;10.22;nan
12146;BME280;6136;47.032;15.398;2022-10-16T05:40:27;97991.84;;;10.26;nan
12146;BME280;6136;47.032;15.398;2022-10-16T05:42:56;97996.16;;;10.29;nan
12146;BME280;6136;47.032;15.398;2022-10-16T05:45:24;97989.81;;;10.31;nan
12146;BME280;6136;47.032;15.398;2022-10-16T05:47:52;97995.09;;;10.31;nan
12146;BME280;6136;47.032;15.398;2022-10-16T05:50:21;97984.09;;;10.39;nan
12146;BME280;6136;47.032;15.398;2022-10-16T05:52:49;97990.25;;;10.39;nan
12146;BME280;6136;47.032;15.398;2022-10-16T05:55:18;98002.13;;;10.32;nan
12146;BME280;6136;47.032;15.398;2022-10-16T05:57:47;98000.59;;;10.28;nan
12146;BME280;6136;47.032;15.398;2022-10-16T06:00:15;98000.59;;;10.28;nan
12146;BME280;6136;47.032;15.398;2022-10-16T06:02:44;98004.16;;;10.27;nan
12146;BME280;6136;47.032;15.398;2022-10-16T06:05:12;98016.28;;;10.31;nan
12146;BME280;6136;47.032;15.398;2022-10-16T06:07:40;98030.25;;;10.35;nan
12146;BME280;6136;47.032;15.398;2022-10-16T06:10:09;98029.31;;;10.36;nan
12146;BME280;6136;47.032;15.398;2022-10-16T06:12:38;98028.78;;;10.29;nan
12146;BME280;6136;47.032;15.398;2022-10-16T06:15:07;98035.78;;;10.30;nan
12146;BME280;6136;47.032;15.398;2022-10-16T06:17:36;98044.84;;;10.26;nan
12146;BME280;6136;47.032;15.398;2022-10-16T06:20:05;98044.50;;;10.32;nan
12146;BME280;6136;47.032;15.398;2022-10-16T06:22:33;98043.41;;;10.36;nan
12146;BME280;6136;47.032;15.398;2022-10-16T06:25:02;98051.03;;;10.42;nan
12146;BME280;6136;47.032;15.398;2022-10-16T06:27:30;98051.06;;;10.58;nan
12146;BME280;6136;47.032;15.398;2022-10-16T06:30:00;98055.09;;;10.65;nan
12146;BME280;6136;47.032;15.398;2022-10-16T06:32:30;98062.44;;;10.76;nan
12146;BME280;6136;47.032;15.398;2022-10-16T06:34:59;98069.88;;;10.85;nan
12146;BME280;6136;47.032;15.398;2022-10-16T06:37:27;98068.00;;;10.87;nan
12146;BME280;6136;47.032;15.398;2022-10-16T06:39:56;98072.47;;;10.86;nan
12146;BME280;6136;47.032;15.398;2022-10-16T06:42:40;98057.06;;;10.93;nan
12146;BME280;6136;47.032;15.398;2022-10-16T06:45:09;98070.75;;;11.01;nan
12146;BME280;6136;47.032;15.398;2022-10-16T06:47:38;98085.31;;;11.10;nan
12146;BME280;6136;47.032;15.398;2022-10-16T06:50:07;98082.88;;;11.21;nan
12146;BME280;6136;47.032;15.398;2022-10-16T06:52:35;98081.16;;;11.20;nan
12146;BME280;6136;47.032;15.398;2022-10-16T06:55:04;98078.63;;;11.18;nan
12146;BME280;6136;47.032;15.398;2022-10-16T06:57:33;98089.03;;;11.21;nan
12146;BME280;6136;47.032;15.398;2022-10-16T07:00:04;98094.00;;;11.27;nan
12146;BME280;6136;47.032;15.398;2022-10-16T07:02:33;98089.25;;;11.18;nan
12146;BME280;6136;47.032;15.398;2022-10-16T07:05:01;98088.53;;;11.31;nan
12146;BME280;6136;47.032;15.398;2022-10-16T07:07:30;98087.50;;;11.33;nan
12146;BME280;6136;47.032;15.398;2022-10-16T07:09:58;98090.25;;;11.32;nan
12146;BME280;6136;47.032;15.398;2022-10-16T07:12:26;98082.09;;;11.35;nan
12146;BME280;6136;47.032;15.398;2022-10-16T07:14:55;98097.50;;;11.44;nan
12146;BME280;6136;47.032;15.398;2022-10-16T07:17:24;98080.91;;;11.40;nan
12146;BME280;6136;47.032;15.398;2022-10-16T07:19:53;98093.91;;;11.45;nan
12146;BME280;6136;47.032;15.398;2022-10-16T07:22:22;98091.38;;;11.57;nan
12146;BME280;6136;47.032;15.398;2022-10-16T07:24:50;98096.94;;;11.68;nan
12146;BME280;6136;47.032;15.398;2022-10-16T07:27:20;98110.03;;;11.87;nan
12146;BME280;6136;47.032;15.398;2022-10-16T07:29:50;98104.00;;;11.99;nan
12146;BME280;6136;47.032;15.398;2022-10-16T07:32:19;98106.88;;;12.11;nan
12146;BME280;6136;47.032;15.398;2022-10-16T07:34:48;98111.28;;;12.40;nan
12146;BME280;6136;47.032;15.398;2022-10-16T07:37:17;98098.38;;;12.48;nan
12146;BME280;6136;47.032;15.398;2022-10-16T07:39:45;98091.34;;;12.61;nan
12146;BME280;6136;47.032;15.398;2022-10-16T07:42:13;98109.97;;;12.61;nan
12146;BME280;6136;47.032;15.398;2022-10-16T07:44:42;98105.69;;;13.01;nan
12146;BME280;6136;47.032;15.398;2022-10-16T07:47:10;98102.84;;;13.45;nan
12146;BME280;6136;47.032;15.398;2022-10-16T07:49:38;98103.25;;;13.39;nan
12146;BME280;6136;47.032;15.398;2022-10-16T07:52:08;98099.91;;;13.36;nan
12146;BME280;6136;47.032;15.398;2022-10-16T07:54:36;98098.34;;;13.33;nan
12146;BME280;6136;47.032;15.398;2022-10-16T07:57:05;98092.25;;;13.31;nan
12146;BME280;6136;47.032;15.398;2022-10-16T07:59:33;98105.34;;;13.34;nan
12146;BME280;6136;47.032;15.398;2022-10-16T08:02:01;98109.16;;;13.30;nan
12146;BME280;6136;47.032;15.398;2022-10-16T08:04:30;98114.66;;;13.27;nan
12146;BME280;6136;47.032;15.398;2022-10-16T08:06:58;98115.03;;;13.35;nan
12146;BME280;6136;47.032;15.398;2022-10-16T08:09:28;98121.06;;;13.51;nan
12146;BME280;6136;47.032;15.398;2022-10-16T08:11:56;98108.06;;;13.74;nan
12146;BME280;6136;47.032;15.398;2022-10-16T08:14:28;98111.66;;;13.99;nan
12146;BME280;6136;47.032;15.398;2022-10-16T08:16:56;98111.34;;;14.44;nan
12146;BME280;6136;47.032;15.398;2022-10-16T08:19:25;98109.97;;;15.12;nan
12146;BME280;6136;47.032;15.398;2022-10-16T08:21:53;98116.06;;;15.51;nan
12146;BME280;6136;47.032;15.398;2022-10-16T08:24:21;98114.56;;;15.60;nan
12146;BME280;6136;47.032;15.398;2022-10-16T08:26:54;98128.09;;;16.28;nan
12146;BME280;6136;47.032;15.398;2022-10-16T08:29:23;98131.50;;;17.54;nan
12146;BME280;6136;47.032;15.398;2022-10-16T08:31:52;98118.53;;;18.66;nan
12146;BME280;6136;47.032;15.398;2022-10-16T08:34:21;98121.75;;;19.21;nan
12146;BME280;6136;47.032;15.398;2022-10-16T08:36:49;98105.41;;;19.43;nan
12146;BME280;6136;47.032;15.398;2022-10-16T08:39:21;98119.56;;;20.14;nan
12146;BME280;6136;47.032;15.398;2022-10-16T08:42:18;98127.59;;;20.72;nan
12146;BME280;6136;47.032;15.398;2022-10-16T08:45:14;98117.53;;;21.20;nan
12146;BME280;6136;47.032;15.398;2022-10-16T08:48:03;98117.75;;;21.37;nan
12146;BME280;6136;47.032;15.398;2022-10-16T08:50:37;98121.19;;;21.56;nan
12146;BME280;6136;47.032;15.398;2022-10-16T08:53:07;98123.94;;;22.37;nan
12146;BME280;6136;47.032;15.398;2022-10-16T08:55:41;98129.63;;;22.34;nan
12146;BME280;6136;47.032;15.398;2022-10-16T08:58:14;98123.03;;;22.90;nan
12146;BME280;6136;47.032;15.398;2022-10-16T09:00:46;98132.66;;;22.92;nan
12146;BME280;6136;47.032;15.398;2022-10-16T09:03:28;98117.72;;;23.40;nan
12146;BME280;6136;47.032;15.398;2022-10-16T09:06:10;98115.94;;;23.48;nan
12146;BME280;6136;47.032;15.398;2022-10-16T09:08:47;98128.50;;;23.06;nan
12146;BME280;6136;47.032;15.398;2022-10-16T09:11:26;98117.88;;;23.38;nan
12146;BME280;6136;47.032;15.398;2022-10-16T09:14:06;98123.00;;;23.91;nan
12146;BME280;6136;47.032;15.398;2022-10-16T09:16:43;98126.97;;;24.78;nan
12146;BME280;6136;47.032;15.398;2022-10-16T09:19:21;98117.53;;;26.38;nan
12146;BME280;6136;47.032;15.398;2022-10-16T09:21:53;98115.25;;;27.10;nan
12146;BME280;6136;47.032;15.398;2022-10-16T09:24:25;98110.72;;;29.53;nan
12146;BME280;6136;47.032;15.398;2022-10-16T09:26:55;98118.66;;;29.20;nan
12146;BME280;6136;47.032;15.398;2022-10-16T09:29:24;98109.72;;;29.60;nan
12146;BME280;6136;47.032;15.398;2022-10-16T09:31:54;98117.84;;;28.91;nan
12146;BME280;6136;47.032;15.398;2022-10-16T09:34:30;98116.63;;;30.04;nan
12146;BME280;6136;47.032;15.398;2022-10-16T09:37:04;98122.25;;;28.71;nan
12146;BME280;6136;47.032;15.398;2022-10-16T09:39:44;98118.72;;;27.77;nan
12146;BME280;6136;47.032;15.398;2022-10-16T09:42:15;98115.78;;;27.35;nan
12146;BME280;6136;47.032;15.398;2022-10-16T09:44:49;98112.25;;;27.78;nan
12146;BME280;6136;47.032;15.398;2022-10-16T09:47:21;98108.19;;;29.23;nan
12146;BME280;6136;47.032;15.398;2022-10-16T09:49:51;98109.19;;;29.44;nan
12146;BME280;6136;47.032;15.398;2022-10-16T09:52:20;98118.81;;;28.63;nan
12146;BME280;6136;47.032;15.398;2022-10-16T09:54:49;98111.38;;;28.50;nan
12146;BME280;6136;47.032;15.398;2022-10-16T09:57:18;98112.94;;;28.59;nan
12146;BME280;6136;47.032;15.398;2022-10-16T09:59:52;98120.56;;;28.91;nan
12146;BME280;6136;47.032;15.398;2022-10-16T10:02:28;98108.88;;;31.85;nan
12146;BME280;6136;47.032;15.398;2022-10-16T10:04:59;98110.63;;;30.41;nan
12146;BME280;6136;47.032;15.398;2022-10-16T10:07:31;98105.81;;;31.49;nan
12146;BME280;6136;47.032;15.398;2022-10-16T10:10:02;98108.03;;;30.07;nan
12146;BME280;6136;47.032;15.398;2022-10-16T10:12:32;98106.75;;;29.27;nan
12146;BME280;6136;47.032;15.398;2022-10-16T10:15:07;98100.31;;;29.35;nan
12146;BME280;6136;47.032;15.398;2022-10-16T10:17:46;98102.50;;;29.46;nan
12146;BME280;6136;47.032;15.398;2022-10-16T10:20:22;98102.28;;;29.20;nan
12146;BME280;6136;47.032;15.398;2022-10-16T10:22:51;98099.28;;;29.36;nan
12146;BME280;6136;47.032;15.398;2022-10-16T10:25:34;98100.53;;;29.75;nan
12146;BME280;6136;47.032;15.398;2022-10-16T10:28:29;98108.06;;;29.72;nan
12146;BME280;6136;47.032;15.398;2022-10-16T10:31:14;98103.25;;;30.29;nan
12146;BME280;6136;47.032;15.398;2022-10-16T10:33:48;98089.38;;;29.69;nan
12146;BME280;6136;47.032;15.398;2022-10-16T10:36:25;98089.47;;;31.80;nan
12146;BME280;6136;47.032;15.398;2022-10-16T10:38:59;98089.75;;;31.52;nan
12146;BME280;6136;47.032;15.398;2022-10-16T10:41:46;98081.81;;;32.33;nan
12146;BME280;6136;47.032;15.398;2022-10-16T10:44:29;98090.09;;;32.58;nan
12146;BME280;6136;47.032;15.398;2022-10-16T10:47:08;98083.13;;;33.73;nan
12146;BME280;6136;47.032;15.398;2022-10-16T10:49:48;98082.59;;;33.83;nan
12146;BME280;6136;47.032;15.398;2022-10-16T10:52:34;98087.72;;;32.68;nan
12146;BME280;6136;47.032;15.398;2022-10-16T10:55:13;98081.97;;;31.56;nan
12146;BME280;6136;47.032;15.398;2022-10-16T10:58:01;98088.09;;;30.33;nan
12146;BME280;6136;47.032;15.398;2022-10-16T11:00:42;98089.25;;;35.30;nan
12146;BME280;6136;47.032;15.398;2022-10-16T11:03:28;98084.75;;;34.41;nan
12146;BME280;6136;47.032;15.398;2022-10-16T11:06:06;98094.00;;;32.75;nan
12146;BME280;6136;47.032;15.398;2022-10-16T11:08:39;98081.75;;;31.64;nan
12146;BME280;6136;47.032;15.398;2022-10-16T11:11:14;98083.34;;;33.10;nan
12146;BME280;6136;47.032;15.398;2022-10-16T11:13:51;98076.44;;;34.59;nan
12146;BME280;6136;47.032;15.398;2022-10-16T11:16:27;98073.66;;;36.55;nan
12146;BME280;6136;47.032;15.398;2022-10-16T11:19:01;98064.84;;;33.97;nan
12146;BME280;6136;47.032;15.398;2022-10-16T11:21:39;98071.38;;;32.11;nan
12146;BME280;6136;47.032;15.398;2022-10-16T11:24:16;98077.09;;;32.47;nan
12146;BME280;6136;47.032;15.398;2022-10-16T11:26:49;98064.69;;;32.07;nan
12146;BME280;6136;47.032;15.398;2022-10-16T11:29:25;98065.19;;;31.90;nan
12146;BME280;6136;47.032;15.398;2022-10-16T11:31:59;98063.81;;;31.68;nan
12146;BME280;6136;47.032;15.398;2022-10-16T11:34:35;98073.81;;;32.32;nan
12146;BME280;6136;47.032;15.398;2022-10-16T11:37:10;98074.81;;;32.44;nan
12146;BME280;6136;47.032;15.398;2022-10-16T11:39:40;98068.47;;;32.06;nan
12146;BME280;6136;47.032;15.398;2022-10-16T11:42:13;98061.72;;;33.57;nan
12146;BME280;6136;47.032;15.398;2022-10-16T11:44:51;98061.69;;;32.78;nan
12146;BME280;6136;47.032;15.398;2022-10-16T11:47:27;98058.16;;;32.95;nan
12146;BME280;6136;47.032;15.398;2022-10-16T11:50:24;98058.19;;;31.37;nan
12146;BME280;6136;47.032;15.398;2022-10-16T11:53:00;98054.16;;;31.46;nan
12146;BME280;6136;47.032;15.398;2022-10-16T11:55:36;98054.69;;;30.37;nan
12146;BME280;6136;47.032;15.398;2022-10-16T11:58:16;98056.34;;;32.26;nan
12146;BME280;6136;47.032;15.398;2022-10-16T12:00:54;98053.19;;;31.20;nan
12146;BME280;6136;47.032;15.398;2022-10-16T12:03:30;98060.81;;;30.66;nan
12146;BME280;6136;47.032;15.398;2022-10-16T12:06:25;98053.50;;;31.50;nan
12146;BME280;6136;47.032;15.398;2022-10-16T12:08:59;98055.69;;;32.31;nan
12146;BME280;6136;47.032;15.398;2022-10-16T12:11:34;98055.75;;;32.18;nan
12146;BME280;6136;47.032;15.398;2022-10-16T12:14:06;98048.56;;;31.14;nan
12146;BME280;6136;47.032;15.398;2022-10-16T12:16:37;98048.50;;;33.29;nan
12146;BME280;6136;47.032;15.398;2022-10-16T12:19:14;98059.00;;;34.23;nan
12146;BME280;6136;47.032;15.398;2022-10-16T12:21:56;98047.34;;;34.51;nan
12146;BME280;6136;47.032;15.398;2022-10-16T12:24:32;98040.69;;;33.08;nan
12146;BME280;6136;47.032;15.398;2022-10-16T12:27:01;98040.72;;;31.89;nan
12146;BME280;6136;47.032;15.398;2022-10-16T12:29:35;98040.19;;;32.74;nan
12146;BME280;6136;47.032;15.398;2022-10-16T12:32:18;98044.50;;;33.07;nan
12146;BME280;6136;47.032;15.398;2022-10-16T12:35:18;98055.72;;;31.02;nan
12146;BME280;6136;47.032;15.398;2022-10-16T12:37:50;98039.31;;;30.76;nan
12146;BME280;6136;47.032;15.398;2022-10-16T12:40:29;98053.25;;;30.68;nan
12146;BME280;6136;47.032;15.398;2022-10-16T12:42:58;98053.38;;;30.07;nan
12146;BME280;6136;47.032;15.398;2022-10-16T12:45:29;98055.72;;;30.23;nan
12146;BME280;6136;47.032;15.398;2022-10-16T12:48:00;98055.06;;;32.85;nan
12146;BME280;6136;47.032;15.398;2022-10-16T12:50:32;98055.34;;;32.14;nan
12146;BME280;6136;47.032;15.398;2022-10-16T12:53:04;98053.44;;;32.46;nan
12146;BME280;6136;47.032;15.398;2022-10-16T12:55:52;98048.97;;;31.24;nan
12146;BME280;6136;47.032;15.398;2022-10-16T12:58:45;98061.94;;;32.94;nan
12146;BME280;6136;47.032;15.398;2022-10-16T13:01:31;98052.22;;;34.08;nan
12146;BME280;6136;47.032;15.398;2022-10-16T13:04:16;98056.19;;;34.53;nan
12146;BME280;6136;47.032;15.398;2022-10-16T13:06:53;98059.84;;;32.65;nan
12146;BME280;6136;47.032;15.398;2022-10-16T13:09:38;98068.63;;;34.97;nan
12146;BME280;6136;47.032;15.398;2022-10-16T13:12:25;98064.09;;;34.61;nan
12146;BME280;6136;47.032;15.398;2022-10-16T13:15:13;98067.28;;;32.33;nan
12146;BME280;6136;47.032;15.398;2022-10-16T13:17:52;98060.25;;;31.54;nan
12146;BME280;6136;47.032;15.398;2022-10-16T13:20:28;98064.16;;;31.01;nan
12146;BME280;6136;47.032;15.398;2022-10-16T13:23:05;98075.50;;;32.33;nan
12146;BME280;6136;47.032;15.398;2022-10-16T13:25:51;98072.16;;;31.02;nan
12146;BME280;6136;47.032;15.398;2022-10-16T13:28:28;98074.88;;;33.12;nan
12146;BME280;6136;47.032;15.398;2022-10-16T13:31:00;98076.44;;;34.59;nan
12146;BME280;6136;47.032;15.398;2022-10-16T13:33:32;98084.53;;;33.21;nan
12146;BME280;6136;47.032;15.398;2022-10-16T13:36:02;98086.84;;;31.41;nan
12146;BME280;6136;47.032;15.398;2022-10-16T13:38:32;98087.03;;;32.04;nan
12146;BME280;6136;47.032;15.398;2022-10-16T13:41:04;98081.34;;;32.43;nan
12146;BME280;6136;47.032;15.398;2022-10-16T13:43:35;98082.69;;;30.79;nan
12146;BME280;6136;47.032;15.398;2022-10-16T13:46:06;98078.66;;;30.48;nan
12146;BME280;6136;47.032;15.398;2022-10-16T13:48:35;98088.91;;;31.65;nan
12146;BME280;6136;47.032;15.398;2022-10-16T13:51:06;98094.56;;;31.77;nan
12146;BME280;6136;47.032;15.398;2022-10-16T13:53:40;98084.50;;;32.02;nan